createdAt,value
2023-01-20T00:01:37.311Z,100016.66
2023-01-20T00:03:41.066Z,100022.31
2023-01-20T00:05:50.888Z,100014.31
2023-01-20T00:07:52.460Z,100026.63
2023-01-20T00:09:54.031Z,100031.19
2023-01-20T00:11:55.629Z,100027.13
2023-01-20T00:13:59.605Z,100030.63
2023-01-20T00:16:02.316Z,100032.25
2023-01-20T00:18:04.083Z,100031.97
2023-01-20T00:20:08.488Z,100040.28
2023-01-20T00:22:10.028Z,100042.38
2023-01-20T00:24:11.751Z,100036.56
2023-01-20T00:26:15.300Z,100038.75
2023-01-20T00:28:17.145Z,100045.97
2023-01-20T00:30:18.989Z,100043.25
2023-01-20T00:32:20.746Z,100048.53
2023-01-20T00:34:22.333Z,100059.00
2023-01-20T00:36:26.927Z,100057.38
2023-01-20T00:38:28.512Z,100060.06
2023-01-20T00:40:30.143Z,100065.91
2023-01-20T00:42:32.459Z,100061.88
2023-01-20T00:44:33.919Z,100064.78
2023-01-20T00:46:35.626Z,100064.00
2023-01-20T00:48:37.811Z,100066.09
2023-01-20T00:50:39.308Z,100065.03
2023-01-20T00:52:42.340Z,100068.53
2023-01-20T00:54:43.877Z,100070.41
2023-01-20T00:56:45.730Z,100077.63
2023-01-20T00:58:47.329Z,100077.34
2023-01-20T01:00:50.193Z,100073.91
2023-01-20T01:02:54.853Z,100076.56
2023-01-20T01:04:56.577Z,100075.19
2023-01-20T01:06:58.223Z,100083.50
2023-01-20T01:09:01.310Z,100086.19
2023-01-20T01:11:03.889Z,100093.66
2023-01-20T01:13:06.403Z,100092.03
2023-01-20T01:15:09.219Z,100098.69
2023-01-20T01:17:10.864Z,100101.63
2023-01-20T01:19:12.496Z,100097.09
2023-01-20T01:21:16.839Z,100093.41
2023-01-20T01:23:18.436Z,100101.16
2023-01-20T01:25:21.659Z,100106.31
2023-01-20T01:27:23.329Z,100111.94
2023-01-20T01:29:25.023Z,100109.31
2023-01-20T01:31:26.607Z,100107.41
2023-01-20T01:33:28.245Z,100118.63
2023-01-20T01:35:29.821Z,100121.28
2023-01-20T01:37:31.398Z,100123.97
2023-01-20T01:39:32.922Z,100118.13
2023-01-20T01:41:35.956Z,100127.94
2023-01-20T01:43:38.606Z,100128.44
2023-01-20T01:45:40.133Z,100132.94
2023-01-20T01:47:49.138Z,100135.06
2023-01-20T01:49:51.567Z,100136.66
2023-01-20T01:51:58.462Z,100135.31
2023-01-20T01:54:05.072Z,100137.50
2023-01-20T01:56:07.611Z,100137.28
2023-01-20T01:58:16.547Z,100142.88
2023-01-20T02:00:18.581Z,100144.78
2023-01-20T02:02:24.026Z,100145.06
2023-01-20T02:04:27.537Z,100142.09
2023-01-20T02:06:32.688Z,100147.63
2023-01-20T02:08:34.891Z,100151.91
2023-01-20T02:10:36.416Z,100145.75
2023-01-20T02:12:38.503Z,100151.09
2023-01-20T02:14:45.975Z,100155.66
2023-01-20T02:16:58.986Z,100148.97
2023-01-20T02:19:20.404Z,100148.50
2023-01-20T02:21:49.534Z,100152.75
2023-01-20T02:24:23.274Z,100150.09
2023-01-20T02:26:51.930Z,100154.09
2023-01-20T02:29:28.876Z,100162.50
2023-01-20T02:31:59.680Z,100168.41
2023-01-20T02:34:04.489Z,100165.44
2023-01-20T02:36:09.563Z,100177.19
2023-01-20T02:38:16.284Z,100174.75
2023-01-20T02:40:30.176Z,100178.75
2023-01-20T02:42:37.493Z,100179.78
2023-01-20T02:44:42.912Z,100178.66
2023-01-20T02:46:52.089Z,100176.78
2023-01-20T02:48:59.056Z,100176.75
2023-01-20T02:51:05.329Z,100183.34
2023-01-20T02:53:09.912Z,100189.13
2023-01-20T02:55:15.831Z,100180.53
2023-01-20T02:57:23.568Z,100188.25
2023-01-20T02:59:30.781Z,100191.47
2023-01-20T03:01:36.291Z,100192.78
2023-01-20T03:03:43.890Z,100194.41
2023-01-20T03:05:52.158Z,100194.91
2023-01-20T03:07:55.059Z,100197.56
2023-01-20T03:10:01.299Z,100201.53
2023-01-20T03:12:09.557Z,100201.84
2023-01-20T03:14:14.203Z,100202.13
2023-01-20T03:16:19.062Z,100200.75
2023-01-20T03:18:20.651Z,100207.47
2023-01-20T03:20:23.817Z,100210.38
2023-01-20T03:22:25.513Z,100208.81
2023-01-20T03:24:29.234Z,100222.75
2023-01-20T03:26:31.737Z,100218.19
2023-01-20T03:28:33.246Z,100217.97
2023-01-20T03:30:34.971Z,100217.13
2023-01-20T03:32:36.644Z,100225.69
2023-01-20T03:34:41.540Z,100222.19
2023-01-20T03:36:46.018Z,100222.25
2023-01-20T03:38:48.737Z,100230.19
2023-01-20T03:41:10.846Z,100229.13
2023-01-20T03:43:20.541Z,100237.16
2023-01-20T03:45:29.986Z,100238.22
2023-01-20T03:47:47.768Z,100235.53
2023-01-20T03:49:54.576Z,100240.50
2023-01-20T03:52:03.377Z,100243.50
2023-01-20T03:54:09.041Z,100237.97
2023-01-20T03:56:16.977Z,100237.41
2023-01-20T03:58:22.314Z,100247.28
2023-01-20T04:00:29.751Z,100248.09
2023-01-20T04:02:33.489Z,100253.16
2023-01-20T04:04:38.089Z,100253.31
2023-01-20T04:06:42.476Z,100251.19
2023-01-20T04:08:50.538Z,100244.56
2023-01-20T04:10:54.178Z,100246.34
2023-01-20T04:12:55.720Z,100246.09
2023-01-20T04:14:57.529Z,100251.19
2023-01-20T04:16:59.356Z,100253.31
2023-01-20T04:19:00.930Z,100249.50
2023-01-20T04:21:03.484Z,100254.78
2023-01-20T04:23:06.544Z,100257.41
2023-01-20T04:25:14.937Z,100251.75
2023-01-20T04:27:16.670Z,100256.25
2023-01-20T04:29:18.260Z,100269.03
2023-01-20T04:31:30.232Z,100265.84
2023-01-20T04:33:32.274Z,100269.19
2023-01-20T04:35:33.876Z,100263.53
2023-01-20T04:37:35.446Z,100273.91
2023-01-20T04:39:36.994Z,100273.91
2023-01-20T04:41:39.992Z,100269.03
2023-01-20T04:43:43.439Z,100271.72
2023-01-20T04:45:45.017Z,100270.91
2023-01-20T04:47:46.556Z,100275.44
2023-01-20T04:49:48.143Z,100274.88
2023-01-20T04:51:49.659Z,100275.44
2023-01-20T04:53:51.280Z,100281.34
2023-01-20T04:55:52.863Z,100282.16
2023-01-20T04:57:55.888Z,100287.19
2023-01-20T04:59:57.426Z,100286.38
2023-01-20T05:01:59.061Z,100284.00
2023-01-20T05:04:00.743Z,100290.56
2023-01-20T05:06:02.285Z,100286.31
2023-01-20T05:08:03.935Z,100290.81
2023-01-20T05:10:06.849Z,100296.16
2023-01-20T05:12:08.481Z,100298.81
2023-01-20T05:14:12.315Z,100293.47
2023-01-20T05:16:13.925Z,100304.09
2023-01-20T05:18:15.880Z,100300.59
2023-01-20T05:20:17.527Z,100295.59
2023-01-20T05:22:19.090Z,100304.66
2023-01-20T05:24:20.826Z,100310.22
2023-01-20T05:26:23.010Z,100318.50
2023-01-20T05:28:24.527Z,100317.09
2023-01-20T05:30:27.575Z,100321.53
2023-01-20T05:32:29.274Z,100328.19
2023-01-20T05:34:30.846Z,100316.72
2023-01-20T05:36:32.425Z,100326.81
2023-01-20T05:38:33.989Z,100320.66
2023-01-20T05:40:35.559Z,100329.16
2023-01-20T05:42:37.137Z,100335.69
2023-01-20T05:44:38.653Z,100336.25
2023-01-20T05:46:41.835Z,100337.78
2023-01-20T05:48:47.878Z,100341.97
2023-01-20T05:50:49.553Z,100341.44
2023-01-20T05:52:51.356Z,100348.28
2023-01-20T05:54:52.900Z,100349.91
2023-01-20T05:56:54.464Z,100355.00
2023-01-20T05:58:56.276Z,100352.09
2023-01-20T06:01:04.599Z,100352.91
2023-01-20T06:03:07.597Z,100359.28
2023-01-20T06:05:09.533Z,100358.47
2023-01-20T06:07:11.117Z,100363.97
2023-01-20T06:09:12.655Z,100368.25
2023-01-20T06:11:14.207Z,100370.91
2023-01-20T06:13:16.003Z,100377.31
2023-01-20T06:15:17.537Z,100373.81
2023-01-20T06:17:19.667Z,100378.69
2023-01-20T06:19:22.715Z,100385.88
2023-01-20T06:21:24.251Z,100379.38
2023-01-20T06:23:25.997Z,100386.81
2023-01-20T06:25:27.559Z,100384.03
2023-01-20T06:27:29.130Z,100393.19
2023-01-20T06:29:30.728Z,100392.88
2023-01-20T06:31:32.366Z,100388.31
2023-01-20T06:33:34.748Z,100397.94
2023-01-20T06:35:37.900Z,100392.88
2023-01-20T06:37:39.425Z,100403.41
2023-01-20T06:39:40.968Z,100401.00
2023-01-20T06:41:42.486Z,100400.66
2023-01-20T06:43:44.501Z,100400.66
2023-01-20T06:45:46.006Z,100404.38
2023-01-20T06:47:48.685Z,100409.72
2023-01-20T06:49:50.363Z,100411.34
2023-01-20T06:51:53.266Z,100414.00
2023-01-20T06:53:55.205Z,100419.56
2023-01-20T06:55:58.198Z,100421.31
2023-01-20T06:57:59.749Z,100423.19
2023-01-20T07:00:01.351Z,100428.38
2023-01-20T07:02:03.012Z,100439.84
2023-01-20T07:04:05.215Z,100439.13
2023-01-20T07:06:15.436Z,100428.47
2023-01-20T07:08:18.326Z,100439.50
2023-01-20T07:10:19.871Z,100451.47
2023-01-20T07:12:21.341Z,100453.09
2023-01-20T07:14:22.888Z,100454.72
2023-01-20T07:16:24.528Z,100455.75
2023-01-20T07:18:26.156Z,100455.50
2023-01-20T07:20:27.744Z,100459.47
2023-01-20T07:22:29.329Z,100457.03
2023-01-20T07:24:32.275Z,100461.91
2023-01-20T07:26:36.824Z,100462.47
2023-01-20T07:28:38.514Z,100465.72
2023-01-20T07:30:40.143Z,100465.72
2023-01-20T07:32:41.700Z,100469.44
2023-01-20T07:34:43.251Z,100469.88
2023-01-20T07:36:44.788Z,100477.09
2023-01-20T07:38:47.329Z,100483.22
2023-01-20T07:40:50.321Z,100481.38
2023-01-20T07:42:52.051Z,100484.28
2023-01-20T07:44:53.662Z,100482.44
2023-01-20T07:46:55.245Z,100479.75
2023-01-20T07:48:56.768Z,100490.44
2023-01-20T07:50:59.692Z,100500.28
2023-01-20T07:53:01.434Z,100497.59
2023-01-20T07:55:03.188Z,100493.91
2023-01-20T07:57:06.144Z,100499.00
2023-01-20T07:59:07.637Z,100505.84
2023-01-20T08:01:10.983Z,100505.06
2023-01-20T08:03:12.598Z,100508.28
2023-01-20T08:05:14.488Z,100504.56
2023-01-20T08:07:16.180Z,100509.19
2023-01-20T08:09:17.702Z,100511.88
2023-01-20T08:11:20.529Z,100510.59
2023-01-20T08:13:23.469Z,100513.63
2023-01-20T08:15:25.311Z,100517.09
2023-01-20T08:17:26.968Z,100516.75
2023-01-20T08:19:28.907Z,100521.13
2023-01-20T08:21:33.953Z,100521.13
2023-01-20T08:23:36.177Z,100526.44
2023-01-20T08:25:37.744Z,100523.97
2023-01-20T08:27:39.329Z,100521.41
2023-01-20T08:29:42.331Z,100519.84
2023-01-20T08:31:43.988Z,100523.22
2023-01-20T08:33:46.667Z,100527.59
2023-01-20T08:35:48.247Z,100532.00
2023-01-20T08:37:49.885Z,100530.50
2023-01-20T08:39:51.970Z,100537.31
2023-01-20T08:41:53.710Z,100538.47
2023-01-20T08:43:55.537Z,100544.78
2023-01-20T08:46:05.990Z,100550.81
2023-01-20T08:48:07.514Z,100548.22
2023-01-20T08:50:10.543Z,100549.94
2023-01-20T08:52:12.352Z,100554.06
2023-01-20T08:54:14.592Z,100553.00
2023-01-20T08:56:17.132Z,100552.84
2023-01-20T08:58:18.699Z,100552.22
2023-01-20T09:00:21.054Z,100554.00
2023-01-20T09:02:23.994Z,100564.09
2023-01-20T09:04:25.586Z,100560.13
2023-01-20T09:06:27.106Z,100558.19
2023-01-20T09:08:28.637Z,100563.69
2023-01-20T09:10:32.105Z,100569.13
2023-01-20T09:12:33.647Z,100570.59
2023-01-20T09:14:35.306Z,100568.81
2023-01-20T09:16:36.993Z,100572.53
2023-01-20T09:18:40.246Z,100579.50
2023-01-20T09:20:41.811Z,100579.72
2023-01-20T09:22:43.644Z,100578.91
2023-01-20T09:24:45.242Z,100574.94
2023-01-20T09:26:47.842Z,100580.75
2023-01-20T09:28:49.541Z,100588.31
2023-01-20T09:30:56.955Z,100588.78
2023-01-20T09:32:58.577Z,100591.44
2023-01-20T09:35:01.748Z,100587.66
2023-01-20T09:37:03.421Z,100597.03
2023-01-20T09:39:04.960Z,100602.72
2023-01-20T09:41:16.883Z,100608.31
2023-01-20T09:43:30.841Z,100613.19
2023-01-20T09:45:37.829Z,100611.41
2023-01-20T09:47:43.447Z,100610.91
2023-01-20T09:50:01.197Z,100616.13
2023-01-20T09:52:13.343Z,100620.38
2023-01-20T09:54:18.791Z,100614.03
2023-01-20T09:56:24.911Z,100615.28
2023-01-20T09:58:33.035Z,100613.91
2023-01-20T10:00:36.991Z,100614.63
2023-01-20T10:02:41.169Z,100615.53
2023-01-20T10:04:47.310Z,100615.44
2023-01-20T10:06:52.294Z,100611.31
2023-01-20T10:09:06.059Z,100618.09
2023-01-20T10:11:12.632Z,100616.41
2023-01-20T10:13:20.127Z,100607.09
2023-01-20T10:15:26.447Z,100612.28
2023-01-20T10:17:33.801Z,100609.38
2023-01-20T10:19:39.299Z,100613.00
2023-01-20T10:21:45.562Z,100613.91
2023-01-20T10:23:52.848Z,100610.81
2023-01-20T10:25:59.544Z,100622.91
2023-01-20T10:28:09.103Z,100616.81
2023-01-20T10:30:13.338Z,100623.41
2023-01-20T10:32:24.777Z,100626.97
2023-01-20T10:34:33.850Z,100619.25
2023-01-20T10:36:36.400Z,100614.94
2023-01-20T10:38:50.187Z,100621.13
2023-01-20T10:40:57.225Z,100617.94
2023-01-20T10:43:09.469Z,100612.84
2023-01-20T10:45:19.798Z,100612.34
2023-01-20T10:47:30.934Z,100608.38
2023-01-20T10:49:53.121Z,100618.66
2023-01-20T10:52:09.122Z,100619.53
2023-01-20T10:54:22.799Z,100616.84
2023-01-20T10:56:42.667Z,100612.81
2023-01-20T10:58:45.623Z,100617.69
2023-01-20T11:00:47.394Z,100620.59
2023-01-20T11:02:49.257Z,100618.56
2023-01-20T11:04:55.435Z,100619.44
2023-01-20T11:07:00.673Z,100619.94
2023-01-20T11:09:20.039Z,100619.44
2023-01-20T11:11:24.171Z,100621.59
2023-01-20T11:13:26.166Z,100626.25
2023-01-20T11:15:31.408Z,100615.28
2023-01-20T11:17:33.024Z,100617.47
2023-01-20T11:19:52.358Z,100612.47
2023-01-20T11:21:54.056Z,100617.03
2023-01-20T11:23:57.139Z,100620.75
2023-01-20T11:26:00.756Z,100625.38
2023-01-20T11:28:02.478Z,100625.91
2023-01-20T11:30:08.104Z,100624.63
2023-01-20T11:32:29.977Z,100630.78
2023-01-20T11:34:33.409Z,100633.19
2023-01-20T11:36:35.011Z,100630.03
2023-01-20T11:38:42.827Z,100626.88
2023-01-20T11:40:52.445Z,100630.16
2023-01-20T11:42:54.749Z,100621.03
2023-01-20T11:45:05.694Z,100621.56
2023-01-20T11:47:25.654Z,100622.38
2023-01-20T11:49:28.705Z,100621.91
2023-01-20T11:51:30.389Z,100616.97
2023-01-20T11:53:33.603Z,100621.31
2023-01-20T11:55:48.327Z,100619.75
2023-01-20T11:57:54.196Z,100614.13
2023-01-20T11:59:55.793Z,100615.16
2023-01-20T12:01:59.935Z,100611.53
2023-01-20T12:04:23.381Z,100615.28
2023-01-20T12:06:29.062Z,100614.78
2023-01-20T12:08:40.295Z,100615.88
2023-01-20T12:10:43.354Z,100609.78
2023-01-20T12:12:50.320Z,100609.25
2023-01-20T12:14:56.057Z,100609.72
2023-01-20T12:17:15.071Z,100610.38
2023-01-20T12:19:20.848Z,100604.75
2023-01-20T12:21:31.849Z,100612.03
2023-01-20T12:23:39.900Z,100616.13
2023-01-20T12:25:48.875Z,100610.75
2023-01-20T12:27:56.438Z,100611.16
2023-01-20T12:30:03.530Z,100616.81
2023-01-20T12:32:05.526Z,100619.00
2023-01-20T12:34:12.892Z,100612.03
2023-01-20T12:36:50.454Z,100615.84
2023-01-20T12:39:04.987Z,100620.84
2023-01-20T12:41:14.832Z,100618.72
2023-01-20T12:43:33.561Z,100620.16
2023-01-20T12:45:49.254Z,100619.69
2023-01-20T12:48:04.058Z,100624.78
2023-01-20T12:50:19.929Z,100626.72
2023-01-20T12:52:45.150Z,100627.25
2023-01-20T12:54:58.495Z,100631.00
2023-01-20T12:57:08.376Z,100628.25
2023-01-20T12:59:22.629Z,100620.34
2023-01-20T13:01:42.778Z,100626.72
2023-01-20T13:04:11.390Z,100620.19
2023-01-20T13:06:45.781Z,100627.34
2023-01-20T13:08:56.063Z,100627.53
2023-01-20T13:11:10.643Z,100628.66
2023-01-20T13:13:23.525Z,100626.72
2023-01-20T13:15:32.816Z,100632.09
2023-01-20T13:17:42.552Z,100621.59
2023-01-20T13:19:44.863Z,100625.88
2023-01-20T13:22:06.530Z,100628.03
2023-01-20T13:24:17.286Z,100625.41
2023-01-20T13:26:19.380Z,100635.31
2023-01-20T13:28:23.756Z,100631.75
2023-01-20T13:30:40.626Z,100637.13
2023-01-20T13:32:44.874Z,100636.13
2023-01-20T13:34:46.506Z,100636.50
2023-01-20T13:37:23.940Z,100638.19
2023-01-20T13:39:42.390Z,100640.88
2023-01-20T13:41:48.902Z,100635.25
2023-01-20T13:43:50.510Z,100639.81
2023-01-20T13:46:32.571Z,100638.00
2023-01-20T13:48:36.659Z,100633.69
2023-01-20T13:50:39.690Z,100632.56
2023-01-20T13:53:24.081Z,100632.84
2023-01-20T13:55:28.218Z,100633.97
2023-01-20T13:57:38.560Z,100638.25
2023-01-20T13:59:40.133Z,100631.50
2023-01-20T14:01:41.702Z,100641.75
2023-01-20T14:04:00.261Z,100632.63
2023-01-20T14:06:03.493Z,100636.88
2023-01-20T14:08:13.727Z,100644.16
2023-01-20T14:10:15.718Z,100640.94
2023-01-20T14:12:17.455Z,100639.56
2023-01-20T14:14:21.140Z,100645.19
2023-01-20T14:16:26.839Z,100647.09
2023-01-20T14:18:28.888Z,100651.50
2023-01-20T14:20:32.613Z,100652.72
2023-01-20T14:22:34.241Z,100644.09
2023-01-20T14:24:38.145Z,100655.66
2023-01-20T14:26:39.758Z,100652.72
2023-01-20T14:28:47.145Z,100642.00
2023-01-20T14:30:50.803Z,100651.06
2023-01-20T14:32:54.053Z,100645.94
2023-01-20T14:34:56.932Z,100652.69
2023-01-20T14:37:27.595Z,100642.50
2023-01-20T14:39:30.141Z,100644.56
2023-01-20T14:41:35.353Z,100650.50
2023-01-20T14:43:36.949Z,100646.19
2023-01-20T14:45:43.333Z,100655.34
2023-01-20T14:47:45.128Z,100657.31
2023-01-20T14:49:49.170Z,100660.22
2023-01-20T14:51:52.691Z,100662.75
2023-01-20T14:54:36.292Z,100660.84
2023-01-20T14:56:38.321Z,100664.88
2023-01-20T14:58:45.471Z,100661.81
2023-01-20T15:00:48.437Z,100673.03
2023-01-20T15:03:05.364Z,100676.06
2023-01-20T15:05:23.854Z,100676.06
2023-01-20T15:07:26.548Z,100672.50
2023-01-20T15:09:30.299Z,100672.00
2023-01-20T15:11:34.135Z,100669.59
2023-01-20T15:13:37.778Z,100673.88
2023-01-20T15:15:39.603Z,100674.69
2023-01-20T15:18:21.004Z,100680.88
2023-01-20T15:20:28.754Z,100680.28
2023-01-20T15:22:30.599Z,100680.53
2023-01-20T15:24:36.269Z,100685.34
2023-01-20T15:26:39.648Z,100691.50
2023-01-20T15:28:42.965Z,100694.66
2023-01-20T15:30:44.540Z,100691.81
2023-01-20T15:32:47.307Z,100693.13
2023-01-20T15:34:48.963Z,100705.72
2023-01-20T15:36:52.097Z,100705.31
2023-01-20T15:38:54.078Z,100705.63
2023-01-20T15:40:55.909Z,100700.03
2023-01-20T15:42:58.866Z,100707.25
2023-01-20T15:45:00.466Z,100712.78
2023-01-20T15:47:02.468Z,100716.97
2023-01-20T15:49:04.069Z,100718.38
2023-01-20T15:51:06.106Z,100716.66
2023-01-20T15:53:12.572Z,100720.63
2023-01-20T15:55:15.859Z,100716.00
2023-01-20T15:57:18.071Z,100726.47
2023-01-20T15:59:21.341Z,100724.22
2023-01-20T16:01:24.706Z,100720.16
2023-01-20T16:03:27.785Z,100719.91
2023-01-20T16:05:29.386Z,100725.50
2023-01-20T16:07:30.933Z,100720.00
2023-01-20T16:09:32.491Z,100725.56
2023-01-20T16:11:34.119Z,100721.41
2023-01-20T16:13:35.709Z,100723.72
2023-01-20T16:15:39.567Z,100731.09
2023-01-20T16:17:41.489Z,100723.06
2023-01-20T16:19:43.183Z,100728.66
2023-01-20T16:21:45.762Z,100718.59
2023-01-20T16:23:47.465Z,100723.63
2023-01-20T16:25:49.051Z,100729.88
2023-01-20T16:27:50.937Z,100727.44
2023-01-20T16:29:53.849Z,100728.97
2023-01-20T16:31:56.802Z,100731.31
2023-01-20T16:33:58.428Z,100741.28
2023-01-20T16:36:00.211Z,100734.91
2023-01-20T16:38:04.124Z,100740.00
2023-01-20T16:40:06.950Z,100742.91
2023-01-20T16:42:10.345Z,100746.41
2023-01-20T16:44:11.945Z,100743.72
2023-01-20T16:46:14.839Z,100736.38
2023-01-20T16:48:22.909Z,100748.91
2023-01-20T16:50:24.602Z,100751.53
2023-01-20T16:52:26.212Z,100755.16
2023-01-20T16:54:27.865Z,100753.31
2023-01-20T16:56:31.502Z,100749.56
2023-01-20T16:58:33.056Z,100755.72
2023-01-20T17:00:34.713Z,100758.53
2023-01-20T17:02:36.455Z,100761.47
2023-01-20T17:04:39.315Z,100773.56
2023-01-20T17:06:40.961Z,100770.88
2023-01-20T17:08:44.820Z,100772.50
2023-01-20T17:10:47.255Z,100775.75
2023-01-20T17:12:49.155Z,100772.25
2023-01-20T17:14:50.916Z,100778.66
2023-01-20T17:16:52.535Z,100781.09
2023-01-20T17:18:55.655Z,100782.63
2023-01-20T17:21:03.810Z,100782.34
2023-01-20T17:23:05.424Z,100787.00
2023-01-20T17:25:09.631Z,100794.78
2023-01-20T17:27:11.245Z,100798.53
2023-01-20T17:29:13.207Z,100795.69
2023-01-20T17:31:17.952Z,100806.25
2023-01-20T17:33:19.642Z,100813.09
2023-01-20T17:35:21.363Z,100820.56
2023-01-20T17:37:24.419Z,100816.63
2023-01-20T17:39:26.279Z,100819.16
2023-01-20T17:41:28.570Z,100822.88
2023-01-20T17:43:34.145Z,100827.25
2023-01-20T17:45:35.834Z,100828.56
2023-01-20T17:47:37.490Z,100822.63
2023-01-20T17:49:39.086Z,100825.31
2023-01-20T17:51:40.648Z,100829.50
2023-01-20T17:53:43.992Z,100827.19
2023-01-20T17:55:45.829Z,100826.88
2023-01-20T17:57:49.947Z,100831.06
2023-01-20T17:59:51.648Z,100835.63
2023-01-20T18:01:53.416Z,100843.84
2023-01-20T18:03:56.781Z,100845.72
2023-01-20T18:05:58.323Z,100849.44
2023-01-20T18:07:59.870Z,100854.09
2023-01-20T18:10:02.897Z,100846.06
2023-01-20T18:12:05.058Z,100853.41
2023-01-20T18:14:07.449Z,100858.31
2023-01-20T18:16:10.773Z,100853.56
2023-01-20T18:18:12.363Z,100862.88
2023-01-20T18:20:14.542Z,100856.81
2023-01-20T18:22:16.302Z,100861.56
2023-01-20T18:24:17.944Z,100862.75
2023-01-20T18:26:25.769Z,100859.72
2023-01-20T18:28:27.481Z,100861.03
2023-01-20T18:30:29.113Z,100856.13
2023-01-20T18:32:30.721Z,100859.84
2023-01-20T18:34:32.621Z,100855.56
2023-01-20T18:36:36.366Z,100852.28
2023-01-20T18:38:38.113Z,100851.72
2023-01-20T18:40:40.590Z,100856.25
2023-01-20T18:42:43.510Z,100853.13
2023-01-20T18:44:45.171Z,100849.97
2023-01-20T18:46:46.784Z,100854.50
2023-01-20T18:48:48.569Z,100853.72
2023-01-20T18:50:50.164Z,100856.25
2023-01-20T18:52:51.757Z,100854.97
2023-01-20T18:54:53.321Z,100848.47
2023-01-20T18:56:54.931Z,100845.44
2023-01-20T18:58:57.882Z,100853.72
2023-01-20T19:01:03.726Z,100844.66
2023-01-20T19:03:05.373Z,100852.31
2023-01-20T19:05:07.819Z,100854.78
2023-01-20T19:07:09.431Z,100858.84
2023-01-20T19:09:11.840Z,100861.63
2023-01-20T19:11:15.436Z,100858.81
2023-01-20T19:13:17.019Z,100857.44
2023-01-20T19:15:20.216Z,100855.22
2023-01-20T19:17:21.823Z,100853.84
2023-01-20T19:19:23.608Z,100842.31
2023-01-20T19:21:26.096Z,100853.94
2023-01-20T19:23:27.658Z,100849.03
2023-01-20T19:25:29.269Z,100849.72
2023-01-20T19:27:31.537Z,100852.38
2023-01-20T19:29:33.130Z,100858.75
2023-01-20T19:31:37.552Z,100849.56
2023-01-20T19:33:39.730Z,100857.25
2023-01-20T19:35:42.183Z,100864.56
2023-01-20T19:37:43.827Z,100854.66
2023-01-20T19:39:45.396Z,100866.13
2023-01-20T19:41:46.925Z,100869.13
2023-01-20T19:43:52.714Z,100866.69
2023-01-20T19:45:54.377Z,100867.38
2023-01-20T19:47:57.329Z,100863.78
2023-01-20T19:49:58.887Z,100871.44
2023-01-20T19:52:00.504Z,100862.50
2023-01-20T19:54:02.441Z,100861.31
2023-01-20T19:56:05.382Z,100870.84
2023-01-20T19:58:07.016Z,100874.38
2023-01-20T20:00:09.947Z,100878.09
2023-01-20T20:02:11.517Z,100871.03
2023-01-20T20:04:14.541Z,100873.09
2023-01-20T20:06:25.324Z,100880.47
2023-01-20T20:08:26.865Z,100873.25
2023-01-20T20:10:28.471Z,100879.28
2023-01-20T20:12:30.004Z,100875.34
2023-01-20T20:14:33.021Z,100877.78
2023-01-20T20:16:36.881Z,100869.19
2023-01-20T20:18:38.456Z,100877.66
2023-01-20T20:20:41.400Z,100876.53
2023-01-20T20:22:42.986Z,100886.06
2023-01-20T20:24:44.547Z,100885.38
2023-01-20T20:26:47.195Z,100885.06
2023-01-20T20:28:49.655Z,100876.69
2023-01-20T20:30:51.954Z,100894.19
2023-01-20T20:32:56.674Z,100879.56
2023-01-20T20:34:58.396Z,100890.94
2023-01-20T20:37:01.349Z,100888.41
2023-01-20T20:39:04.236Z,100890.03
2023-01-20T20:41:07.983Z,100894.88
2023-01-20T20:43:09.888Z,100888.28
2023-01-20T20:45:11.911Z,100888.84
2023-01-20T20:47:16.664Z,100891.31
2023-01-20T20:49:18.318Z,100885.66
2023-01-20T20:51:23.142Z,100894.59
2023-01-20T20:53:26.230Z,100891.50
2023-01-20T20:55:27.817Z,100896.78
2023-01-20T20:57:29.386Z,100897.00
2023-01-20T20:59:31.186Z,100895.16
2023-01-20T21:01:34.262Z,100895.84
2023-01-20T21:03:35.973Z,100896.66
2023-01-20T21:05:37.733Z,100907.00
2023-01-20T21:07:39.497Z,100909.09
2023-01-20T21:09:42.472Z,100903.59
2023-01-20T21:11:44.075Z,100903.25
2023-01-20T21:13:45.739Z,100913.63
2023-01-20T21:15:55.121Z,100905.63
2023-01-20T21:17:56.740Z,100914.41
2023-01-20T21:19:58.291Z,100911.84
2023-01-20T21:21:59.881Z,100903.03
2023-01-20T21:24:01.794Z,100920.00
2023-01-20T21:26:06.523Z,100920.00
2023-01-20T21:28:08.118Z,100919.75
2023-01-20T21:30:11.025Z,100921.63
2023-01-20T21:32:12.776Z,100924.97
2023-01-20T21:34:15.063Z,100918.97
2023-01-20T21:36:17.102Z,100922.09
2023-01-20T21:38:18.740Z,100922.53
2023-01-20T21:40:20.316Z,100923.13
2023-01-20T21:42:23.318Z,100925.91
2023-01-20T21:44:24.960Z,100927.41
2023-01-20T21:46:28.711Z,100927.06
2023-01-20T21:48:30.477Z,100930.97
2023-01-20T21:50:32.008Z,100924.41
2023-01-20T21:52:33.580Z,100926.59
2023-01-20T21:54:35.174Z,100930.53
2023-01-20T21:56:36.851Z,100934.25
2023-01-20T21:58:39.786Z,100936.47
2023-01-20T22:00:41.388Z,100940.31
2023-01-20T22:02:44.201Z,100930.97
2023-01-20T22:04:46.451Z,100935.88
2023-01-20T22:06:48.110Z,100940.09
2023-01-20T22:08:49.698Z,100943.44
2023-01-20T22:10:55.413Z,100938.91
2023-01-20T22:12:57.039Z,100944.03
2023-01-20T22:15:00.059Z,100949.81
2023-01-20T22:17:01.866Z,100947.59
2023-01-20T22:19:03.785Z,100950.53
2023-01-20T22:21:07.137Z,100954.72
2023-01-20T22:23:08.952Z,100954.03
2023-01-20T22:25:10.555Z,100955.44
2023-01-20T22:27:12.196Z,100960.91
2023-01-20T22:29:13.901Z,100968.31
2023-01-20T22:31:19.148Z,100970.25
2023-01-20T22:33:20.718Z,100965.47
2023-01-20T22:35:22.304Z,100959.69
2023-01-20T22:37:23.951Z,100969.66
2023-01-20T22:39:25.610Z,100974.09
2023-01-20T22:41:27.175Z,100980.03
2023-01-20T22:43:28.731Z,100973.56
2023-01-20T22:45:30.297Z,100977.88
2023-01-20T22:47:33.268Z,100981.13
2023-01-20T22:49:34.951Z,100980.22
2023-01-20T22:51:36.517Z,100984.31
2023-01-20T22:53:38.790Z,100986.31
2023-01-20T22:55:52.352Z,100986.91
2023-01-20T22:58:01.711Z,100984.91
2023-01-20T23:00:05.082Z,100987.63
2023-01-20T23:02:07.244Z,100990.09
2023-01-20T23:04:10.655Z,100991.06
2023-01-20T23:06:13.025Z,100988.16
2023-01-20T23:08:14.699Z,100984.97
2023-01-20T23:10:17.191Z,100991.50
2023-01-20T23:12:18.916Z,100996.25
2023-01-20T23:14:20.642Z,100997.88
2023-01-20T23:16:22.853Z,100991.94
2023-01-20T23:18:25.110Z,101003.66
2023-01-20T23:20:28.150Z,101001.66
2023-01-20T23:22:29.750Z,101010.91
2023-01-20T23:24:31.333Z,101001.66
2023-01-20T23:26:32.938Z,101005.94
2023-01-20T23:28:34.485Z,101011.06
2023-01-20T23:30:36.063Z,101009.81
2023-01-20T23:32:37.764Z,101017.16
2023-01-20T23:34:39.297Z,101015.81
2023-01-20T23:36:42.199Z,101017.31
2023-01-20T23:38:44.596Z,101018.47
2023-01-20T23:40:47.907Z,101017.44
2023-01-20T23:42:50.492Z,101014.94